Eijsden, Netherlands
Current Conditions -  °F | °C
As of 5:25 PM on Wednesday 28 Jan 2015 (Local Time) from EHBK Reporting Station
Overcast Overcast  
Wind Chill: 32°   Ceiling: 1300
Heat Index: 43°   Visibility: 6mi
Dew Point: 41°   Wind: 30mph
Humidity: 93%   Direction: 220°SW
Pressure: 29.44"   Gusts: 41mph
Location:  50.78°N, 5.72°E
Report Text: EHBK 281625Z AUTO 22026G36KT 9999 SCT011/// BKN013/// OVC016///06/05 Q0997 TEMPO FM1645 23035G48KT 4000 SHRA BKN010 BKN015CB BECMGFM1645 28020G30KT SCT015 BKN020
Loading
Personal Weather Stations






























Interactive Weather Map New forecast layout! Learn more

10-Day Weather Forecast

Advertisements
Track Severe Weather on mobile